createdAt,value
2022-12-06T00:01:32.629Z,3.95
2022-12-06T00:03:49.729Z,3.94
2022-12-06T00:06:06.719Z,3.94
2022-12-06T00:08:23.766Z,3.95
2022-12-06T00:10:40.995Z,3.94
2022-12-06T00:12:57.937Z,3.93
2022-12-06T00:15:15.110Z,3.94
2022-12-06T00:17:32.239Z,3.92
2022-12-06T00:19:49.247Z,3.93
2022-12-06T00:22:06.206Z,3.90
2022-12-06T00:24:24.426Z,3.90
2022-12-06T00:26:41.674Z,3.90
2022-12-06T00:28:59.042Z,3.91
2022-12-06T00:31:16.263Z,3.91
2022-12-06T00:33:33.370Z,3.89
2022-12-06T00:35:50.438Z,3.88
2022-12-06T00:38:07.381Z,3.89
2022-12-06T00:40:24.438Z,3.89
2022-12-06T00:42:41.719Z,3.92
2022-12-06T00:44:59.007Z,3.91
2022-12-06T00:47:15.954Z,3.90
2022-12-06T00:49:33.090Z,3.91
2022-12-06T00:51:50.090Z,3.95
2022-12-06T00:54:07.391Z,3.95
2022-12-06T00:56:24.763Z,3.91
2022-12-06T00:58:41.749Z,3.92
2022-12-06T01:00:59.784Z,3.91
2022-12-06T01:03:16.829Z,3.93
2022-12-06T01:05:34.124Z,3.93
2022-12-06T01:07:52.576Z,3.93
2022-12-06T01:10:09.629Z,3.93
2022-12-06T01:12:26.687Z,3.93
2022-12-06T01:14:44.033Z,3.93
2022-12-06T01:17:04.136Z,3.94
2022-12-06T01:19:21.132Z,3.91
2022-12-06T01:21:38.185Z,3.91
2022-12-06T01:23:55.403Z,3.94
2022-12-06T01:26:12.434Z,3.92
2022-12-06T01:28:29.655Z,3.94
2022-12-06T01:30:46.708Z,3.93
2022-12-06T01:33:03.911Z,3.90
2022-12-06T01:35:20.917Z,3.89
2022-12-06T01:37:37.893Z,3.90
2022-12-06T01:39:54.846Z,3.93
2022-12-06T01:42:11.968Z,3.93
2022-12-06T01:44:28.969Z,3.97
2022-12-06T01:46:46.063Z,3.93
2022-12-06T01:49:03.995Z,3.89
2022-12-06T01:51:20.936Z,3.90
2022-12-06T01:53:38.248Z,3.90
2022-12-06T01:55:55.177Z,3.91
2022-12-06T01:58:12.446Z,3.96
2022-12-06T02:00:29.781Z,3.95
2022-12-06T02:02:47.165Z,3.96
2022-12-06T02:05:04.547Z,3.96
2022-12-06T02:07:21.617Z,3.98
2022-12-06T02:09:38.616Z,3.92
2022-12-06T02:11:55.941Z,3.92
2022-12-06T02:14:12.936Z,3.90
2022-12-06T02:16:29.916Z,3.90
2022-12-06T02:18:47.033Z,3.88
2022-12-06T02:21:04.115Z,3.89
2022-12-06T02:23:21.108Z,3.86
2022-12-06T02:25:42.070Z,3.86
2022-12-06T02:28:00.311Z,3.88
2022-12-06T02:30:17.221Z,3.84
2022-12-06T02:32:34.272Z,3.86
2022-12-06T02:34:51.490Z,3.83
2022-12-06T02:37:08.369Z,3.82
2022-12-06T02:39:25.718Z,3.81
2022-12-06T02:41:42.999Z,3.82
2022-12-06T02:44:00.284Z,3.83
2022-12-06T02:46:17.616Z,3.78
2022-12-06T02:48:34.707Z,3.81
2022-12-06T02:50:51.982Z,3.79
2022-12-06T02:53:08.902Z,3.78
2022-12-06T02:55:25.842Z,3.79
2022-12-06T02:57:42.751Z,3.78
2022-12-06T02:59:59.868Z,3.78
2022-12-06T03:02:17.163Z,3.76
2022-12-06T03:04:34.459Z,3.75
2022-12-06T03:06:51.411Z,3.75
2022-12-06T03:09:08.233Z,3.77
2022-12-06T03:11:25.491Z,3.75
2022-12-06T03:13:42.543Z,3.74
2022-12-06T03:15:59.688Z,3.72
2022-12-06T03:18:17.087Z,3.73
2022-12-06T03:20:34.372Z,3.74
2022-12-06T03:22:51.617Z,3.75
2022-12-06T03:25:08.694Z,3.74
2022-12-06T03:27:25.763Z,3.71
2022-12-06T03:29:42.761Z,3.71
2022-12-06T03:31:59.804Z,3.71
2022-12-06T03:34:16.908Z,3.70
2022-12-06T03:36:33.971Z,3.67
2022-12-06T03:38:51.050Z,3.71
2022-12-06T03:41:08.354Z,3.70
2022-12-06T03:43:25.295Z,3.69
2022-12-06T03:45:42.646Z,3.70
2022-12-06T03:47:59.761Z,3.69
2022-12-06T03:50:16.821Z,3.70
2022-12-06T03:52:34.112Z,3.67
2022-12-06T03:54:52.347Z,3.65
2022-12-06T03:57:09.325Z,3.64
2022-12-06T03:59:26.560Z,3.60
2022-12-06T04:01:43.538Z,3.62
2022-12-06T04:04:00.526Z,3.61
2022-12-06T04:06:17.528Z,3.59
2022-12-06T04:08:34.714Z,3.58
2022-12-06T04:10:51.973Z,3.56
2022-12-06T04:13:08.976Z,3.54
2022-12-06T04:15:26.236Z,3.51
2022-12-06T04:17:43.560Z,3.51
2022-12-06T04:20:00.935Z,3.53
2022-12-06T04:22:18.312Z,3.52
2022-12-06T04:24:35.346Z,3.54
2022-12-06T04:26:52.342Z,3.52
2022-12-06T04:29:09.281Z,3.51
2022-12-06T04:31:26.234Z,3.51
2022-12-06T04:33:43.663Z,3.50
2022-12-06T04:36:00.542Z,3.48
2022-12-06T04:38:17.851Z,3.49
2022-12-06T04:40:35.121Z,3.49
2022-12-06T04:42:52.159Z,3.50
2022-12-06T04:45:09.341Z,3.50
2022-12-06T04:47:26.581Z,3.50
2022-12-06T04:49:44.646Z,3.47
2022-12-06T04:52:01.667Z,3.47
2022-12-06T04:54:18.920Z,3.46
2022-12-06T04:56:35.943Z,3.45
2022-12-06T04:58:53.946Z,3.45
2022-12-06T05:01:12.047Z,3.48
2022-12-06T05:03:29.131Z,3.50
2022-12-06T05:05:46.433Z,3.47
2022-12-06T05:08:04.392Z,3.49
2022-12-06T05:10:21.725Z,3.49
2022-12-06T05:12:38.970Z,3.49
2022-12-06T05:14:56.225Z,3.47
2022-12-06T05:17:13.086Z,3.46
2022-12-06T05:19:30.082Z,3.42
2022-12-06T05:21:47.362Z,3.46
2022-12-06T05:24:04.664Z,3.45
2022-12-06T05:26:21.676Z,3.45
2022-12-06T05:28:38.625Z,3.43
2022-12-06T05:30:55.863Z,3.44
2022-12-06T05:33:12.995Z,3.43
2022-12-06T05:35:29.859Z,3.43
2022-12-06T05:37:47.824Z,3.43
2022-12-06T05:40:04.990Z,3.43
2022-12-06T05:42:22.750Z,3.42
2022-12-06T05:44:39.796Z,3.44
2022-12-06T05:46:56.817Z,3.45
2022-12-06T05:49:14.800Z,3.43
2022-12-06T05:51:33.973Z,3.42
2022-12-06T05:53:50.972Z,3.41
2022-12-06T05:56:08.047Z,3.41
2022-12-06T05:58:25.020Z,3.40
2022-12-06T06:00:42.271Z,3.39
2022-12-06T06:03:00.358Z,3.39
2022-12-06T06:05:18.395Z,3.38
2022-12-06T06:07:36.399Z,3.39
2022-12-06T06:09:53.768Z,3.39
2022-12-06T06:12:12.626Z,3.39
2022-12-06T06:14:29.981Z,3.43
2022-12-06T06:16:47.011Z,3.43
2022-12-06T06:19:04.329Z,3.44
2022-12-06T06:21:21.366Z,3.45
2022-12-06T06:23:39.102Z,3.51
2022-12-06T06:25:56.152Z,3.50
2022-12-06T06:28:13.455Z,3.45
2022-12-06T06:30:32.446Z,3.46
2022-12-06T06:32:49.582Z,3.47
2022-12-06T06:35:06.495Z,3.44
2022-12-06T06:37:23.628Z,3.44
2022-12-06T06:39:40.668Z,3.45
2022-12-06T06:41:57.707Z,3.46
2022-12-06T06:44:14.616Z,3.49
2022-12-06T06:46:31.980Z,3.47
2022-12-06T06:48:49.009Z,3.44
2022-12-06T06:51:06.272Z,3.46
2022-12-06T06:53:23.272Z,3.46
2022-12-06T06:55:41.211Z,3.47
2022-12-06T06:57:58.459Z,3.44
2022-12-06T07:00:15.677Z,3.43
2022-12-06T07:02:33.590Z,3.43
2022-12-06T07:04:50.651Z,3.47
2022-12-06T07:07:07.697Z,3.46
2022-12-06T07:09:24.941Z,3.46
2022-12-06T07:11:41.833Z,3.46
2022-12-06T07:13:58.913Z,3.45
2022-12-06T07:16:15.981Z,3.45
2022-12-06T07:18:32.889Z,3.46
2022-12-06T07:20:49.815Z,3.46
2022-12-06T07:23:07.109Z,3.44
2022-12-06T07:25:24.151Z,3.44
2022-12-06T07:27:41.195Z,3.44
2022-12-06T07:29:58.425Z,3.46
2022-12-06T07:32:15.569Z,3.47
2022-12-06T07:34:32.537Z,3.49
2022-12-06T07:36:50.129Z,3.52
2022-12-06T07:39:13.053Z,3.53
2022-12-06T07:41:31.556Z,3.55
2022-12-06T07:43:48.586Z,3.55
2022-12-06T07:46:05.625Z,3.56
2022-12-06T07:48:22.916Z,3.59
2022-12-06T07:50:39.852Z,3.58
2022-12-06T07:52:56.928Z,3.58
2022-12-06T07:55:13.972Z,3.60
2022-12-06T07:57:30.900Z,3.63
2022-12-06T07:59:48.194Z,3.64
2022-12-06T08:02:05.253Z,3.63
2022-12-06T08:04:22.313Z,3.64
2022-12-06T08:06:39.351Z,3.66
2022-12-06T08:08:56.322Z,3.68
2022-12-06T08:11:13.550Z,3.69
2022-12-06T08:13:30.808Z,3.69
2022-12-06T08:15:47.792Z,3.72
2022-12-06T08:18:05.130Z,3.73
2022-12-06T08:20:22.425Z,3.76
2022-12-06T08:22:39.683Z,3.77
2022-12-06T08:24:56.891Z,3.79
2022-12-06T08:27:14.167Z,3.82
2022-12-06T08:29:31.191Z,3.83
2022-12-06T08:31:48.249Z,3.88
2022-12-06T08:34:05.574Z,3.89
2022-12-06T08:36:22.466Z,3.88
2022-12-06T08:38:40.743Z,3.87
2022-12-06T08:40:58.069Z,3.88
2022-12-06T08:43:14.973Z,3.88
2022-12-06T08:45:32.028Z,3.89
2022-12-06T08:47:48.848Z,3.91
2022-12-06T08:50:05.878Z,3.93
2022-12-06T08:52:22.776Z,3.95
2022-12-06T08:54:39.660Z,3.93
2022-12-06T08:56:57.485Z,3.94
2022-12-06T08:59:14.762Z,3.96
2022-12-06T09:01:37.482Z,4.02
2022-12-06T09:03:55.200Z,4.02
2022-12-06T09:06:12.145Z,4.02
2022-12-06T09:08:29.086Z,4.05
2022-12-06T09:10:46.381Z,4.07
2022-12-06T09:13:03.405Z,4.12
2022-12-06T09:15:20.378Z,4.18
2022-12-06T09:17:37.663Z,4.20
2022-12-06T09:19:54.853Z,4.19
2022-12-06T09:22:11.929Z,4.19
2022-12-06T09:24:28.950Z,4.20
2022-12-06T09:26:46.160Z,4.27
2022-12-06T09:29:03.199Z,4.33
2022-12-06T09:31:20.337Z,4.36
2022-12-06T09:33:37.594Z,4.36
2022-12-06T09:35:54.522Z,4.36
2022-12-06T09:38:11.537Z,4.49
2022-12-06T09:40:28.490Z,4.51
2022-12-06T09:42:45.554Z,4.51
2022-12-06T09:45:02.547Z,4.58
2022-12-06T09:47:19.817Z,4.69
2022-12-06T09:49:37.156Z,4.68
2022-12-06T09:51:54.065Z,4.84
2022-12-06T09:54:11.055Z,4.83
2022-12-06T09:56:28.123Z,4.80
2022-12-06T09:58:45.427Z,4.82
2022-12-06T10:01:02.650Z,4.88
2022-12-06T10:03:19.972Z,4.80
2022-12-06T10:05:36.881Z,4.87
2022-12-06T10:07:53.921Z,4.86
2022-12-06T10:10:11.343Z,4.79
2022-12-06T10:12:28.237Z,4.79
2022-12-06T10:14:45.225Z,4.79
2022-12-06T10:17:02.494Z,4.77
2022-12-06T10:19:19.493Z,4.78
2022-12-06T10:21:36.771Z,4.80
2022-12-06T10:23:57.344Z,4.78
2022-12-06T10:26:18.921Z,4.78
2022-12-06T10:28:36.166Z,4.78
2022-12-06T10:30:54.215Z,4.70
2022-12-06T10:33:11.238Z,4.81
2022-12-06T10:35:28.456Z,4.74
2022-12-06T10:37:46.703Z,4.75
2022-12-06T10:40:04.084Z,4.71
2022-12-06T10:42:21.272Z,4.69
2022-12-06T10:44:38.220Z,4.64
2022-12-06T10:46:56.172Z,4.62
2022-12-06T10:49:13.476Z,4.62
2022-12-06T10:51:30.416Z,4.65
2022-12-06T10:53:48.386Z,4.63
2022-12-06T10:56:05.320Z,4.82
2022-12-06T10:58:22.352Z,4.84
2022-12-06T11:00:39.352Z,4.74
2022-12-06T11:02:56.495Z,4.64
2022-12-06T11:05:13.620Z,4.62
2022-12-06T11:07:30.673Z,4.65
2022-12-06T11:09:47.647Z,4.63
2022-12-06T11:12:05.999Z,4.64
2022-12-06T11:14:23.328Z,4.60
2022-12-06T11:16:40.614Z,4.60
2022-12-06T11:18:58.663Z,4.62
2022-12-06T11:21:15.715Z,4.69
2022-12-06T11:23:32.638Z,4.67
2022-12-06T11:25:49.699Z,4.77
2022-12-06T11:28:08.014Z,4.72
2022-12-06T11:30:26.110Z,4.73
2022-12-06T11:32:43.041Z,4.75
2022-12-06T11:35:00.314Z,4.81
2022-12-06T11:37:17.375Z,4.93
2022-12-06T11:39:34.326Z,4.92
2022-12-06T11:41:51.312Z,4.89
2022-12-06T11:44:08.307Z,4.90
2022-12-06T11:46:25.346Z,4.95
2022-12-06T11:48:42.638Z,5.03
2022-12-06T11:50:59.591Z,5.11
2022-12-06T11:53:16.612Z,5.16
2022-12-06T11:55:33.704Z,5.22
2022-12-06T11:57:51.495Z,5.14
2022-12-06T12:00:08.463Z,5.13
2022-12-06T12:02:25.399Z,5.13
2022-12-06T12:04:42.350Z,5.19
2022-12-06T12:06:59.549Z,5.14
2022-12-06T12:09:16.624Z,5.11
2022-12-06T12:11:33.924Z,5.06
2022-12-06T12:13:50.882Z,5.06
2022-12-06T12:16:07.866Z,5.02
2022-12-06T12:18:25.228Z,4.98
2022-12-06T12:20:43.096Z,4.96
2022-12-06T12:23:00.121Z,4.93
2022-12-06T12:25:19.741Z,4.96
2022-12-06T12:27:37.079Z,4.99
2022-12-06T12:29:54.072Z,4.95
2022-12-06T12:32:11.113Z,4.93
2022-12-06T12:34:28.438Z,4.95
2022-12-06T12:36:45.429Z,4.97
2022-12-06T12:39:02.429Z,4.94
2022-12-06T12:41:19.251Z,5.00
2022-12-06T12:43:36.593Z,4.99
2022-12-06T12:45:57.017Z,4.95
2022-12-06T12:48:16.555Z,4.99
2022-12-06T12:50:33.830Z,5.00
2022-12-06T12:52:50.924Z,5.02
2022-12-06T12:55:08.163Z,4.97
2022-12-06T12:57:25.414Z,5.13
2022-12-06T12:59:42.413Z,5.10
2022-12-06T13:01:59.478Z,5.11
2022-12-06T13:04:16.479Z,5.11
2022-12-06T13:06:33.724Z,5.18
2022-12-06T13:08:50.669Z,5.12
2022-12-06T13:11:07.960Z,5.12
2022-12-06T13:13:25.211Z,5.15
2022-12-06T13:15:43.176Z,5.20
2022-12-06T13:18:00.663Z,5.19
2022-12-06T13:20:19.012Z,5.21
2022-12-06T13:22:36.277Z,5.24
2022-12-06T13:24:53.261Z,5.20
2022-12-06T13:27:10.234Z,5.20
2022-12-06T13:29:27.195Z,5.11
2022-12-06T13:31:44.141Z,5.08
2022-12-06T13:34:01.099Z,5.10
2022-12-06T13:36:18.103Z,5.18
2022-12-06T13:38:35.176Z,5.13
2022-12-06T13:40:52.073Z,5.11
2022-12-06T13:43:08.945Z,5.20
2022-12-06T13:45:25.992Z,5.16
2022-12-06T13:47:44.384Z,5.16
2022-12-06T13:50:01.489Z,5.18
2022-12-06T13:52:18.868Z,5.20
2022-12-06T13:54:35.933Z,5.16
2022-12-06T13:56:53.435Z,5.16
2022-12-06T13:59:10.461Z,5.19
2022-12-06T14:01:27.459Z,5.21
2022-12-06T14:03:45.390Z,5.18
2022-12-06T14:06:03.399Z,5.25
2022-12-06T14:08:23.641Z,5.22
2022-12-06T14:10:40.666Z,5.15
2022-12-06T14:12:57.578Z,5.24
2022-12-06T14:15:14.546Z,5.23
2022-12-06T14:17:59.897Z,5.16
2022-12-06T14:20:08.525Z,5.14
2022-12-06T14:22:25.420Z,5.21
2022-12-06T14:24:42.499Z,5.12
2022-12-06T14:26:59.458Z,5.19
2022-12-06T14:29:16.476Z,5.13
2022-12-06T14:31:34.530Z,5.09
2022-12-06T14:33:51.881Z,5.11
2022-12-06T14:36:12.889Z,5.08
2022-12-06T14:38:34.174Z,5.01
2022-12-06T14:40:51.620Z,4.96
2022-12-06T14:43:10.031Z,4.98
2022-12-06T14:45:26.904Z,4.96
2022-12-06T14:47:43.887Z,4.95
2022-12-06T14:50:00.988Z,4.90
2022-12-06T14:52:18.514Z,4.84
2022-12-06T14:54:35.495Z,4.84
2022-12-06T14:56:52.708Z,4.83
2022-12-06T14:59:09.981Z,4.88
2022-12-06T15:01:27.298Z,4.86
2022-12-06T15:03:44.771Z,4.83
2022-12-06T15:06:01.881Z,4.80
2022-12-06T15:08:18.946Z,4.80
2022-12-06T15:10:37.252Z,4.78
2022-12-06T15:12:54.438Z,4.78
2022-12-06T15:15:11.708Z,4.78
2022-12-06T15:17:28.604Z,4.77
2022-12-06T15:19:45.672Z,4.75
2022-12-06T15:22:02.699Z,4.74
2022-12-06T15:24:19.666Z,4.72
2022-12-06T15:26:36.690Z,4.69
2022-12-06T15:28:53.995Z,4.68
2022-12-06T15:31:11.208Z,4.64
2022-12-06T15:33:28.190Z,4.66
2022-12-06T15:35:46.088Z,4.66
2022-12-06T15:38:04.325Z,4.66
2022-12-06T15:40:21.518Z,4.64
2022-12-06T15:42:38.395Z,4.62
2022-12-06T15:44:55.487Z,4.60
2022-12-06T15:47:12.434Z,4.57
2022-12-06T15:49:29.503Z,4.56
2022-12-06T15:51:46.537Z,4.56
2022-12-06T15:54:03.818Z,4.54
2022-12-06T15:56:21.155Z,4.55
2022-12-06T15:58:38.491Z,4.53
2022-12-06T16:00:55.390Z,4.47
2022-12-06T16:03:12.674Z,4.46
2022-12-06T16:05:29.667Z,4.45
2022-12-06T16:07:47.701Z,4.47
2022-12-06T16:10:04.757Z,4.47
2022-12-06T16:12:21.715Z,4.48
2022-12-06T16:14:39.024Z,4.49
2022-12-06T16:16:55.975Z,4.47
2022-12-06T16:19:12.988Z,4.42
2022-12-06T16:21:30.239Z,4.40
2022-12-06T16:24:17.181Z,4.37
2022-12-06T16:26:24.518Z,4.36
2022-12-06T16:28:42.439Z,4.37
2022-12-06T16:30:59.359Z,4.36
2022-12-06T16:33:16.408Z,4.34
2022-12-06T16:35:33.446Z,4.31
2022-12-06T16:37:50.322Z,4.29
2022-12-06T16:40:07.434Z,4.29
2022-12-06T16:42:24.482Z,4.28
2022-12-06T16:44:41.708Z,4.28
2022-12-06T16:46:58.676Z,4.27
2022-12-06T16:49:44.795Z,4.25
2022-12-06T16:51:52.680Z,4.25
2022-12-06T16:54:09.955Z,4.22
2022-12-06T16:56:26.938Z,4.21
2022-12-06T16:58:43.857Z,4.20
2022-12-06T17:01:00.811Z,4.20
2022-12-06T17:03:17.754Z,4.18
2022-12-06T17:05:34.883Z,4.18
2022-12-06T17:07:51.996Z,4.18
2022-12-06T17:10:08.949Z,4.19
2022-12-06T17:12:25.966Z,4.18
2022-12-06T17:14:43.007Z,4.16
2022-12-06T17:17:02.669Z,4.17
2022-12-06T17:19:19.981Z,4.17
2022-12-06T17:21:36.828Z,4.14
2022-12-06T17:23:53.873Z,4.11
2022-12-06T17:26:11.154Z,4.14
2022-12-06T17:28:28.502Z,4.11
2022-12-06T17:30:50.810Z,4.09
2022-12-06T17:33:08.301Z,4.09
2022-12-06T17:35:25.264Z,4.07
2022-12-06T17:37:42.223Z,4.09
2022-12-06T17:40:00.527Z,4.05
2022-12-06T17:42:18.738Z,4.06
2022-12-06T17:44:35.753Z,4.05
2022-12-06T17:46:52.785Z,4.03
2022-12-06T17:49:09.769Z,4.03
2022-12-06T17:51:27.090Z,4.02
2022-12-06T17:53:44.027Z,4.00
2022-12-06T17:56:01.098Z,3.99
2022-12-06T17:58:18.064Z,3.99
2022-12-06T18:00:35.000Z,4.00
2022-12-06T18:02:52.069Z,3.99
2022-12-06T18:05:09.268Z,3.99
2022-12-06T18:07:26.516Z,3.97
2022-12-06T18:09:43.471Z,3.98
2022-12-06T18:12:00.401Z,3.95
2022-12-06T18:14:17.352Z,3.96
2022-12-06T18:16:34.303Z,3.95
2022-12-06T18:18:51.538Z,3.94
2022-12-06T18:21:08.791Z,3.96
2022-12-06T18:23:25.861Z,3.95
2022-12-06T18:25:44.142Z,3.93
2022-12-06T18:28:01.141Z,3.94
2022-12-06T18:30:18.128Z,3.94
2022-12-06T18:32:35.147Z,3.93
2022-12-06T18:34:52.054Z,3.93
2022-12-06T18:37:09.123Z,3.91
2022-12-06T18:39:26.154Z,3.88
2022-12-06T18:41:43.451Z,3.88
2022-12-06T18:44:00.500Z,3.87
2022-12-06T18:46:17.642Z,3.88
2022-12-06T18:48:34.891Z,3.87
2022-12-06T18:50:52.196Z,3.86
2022-12-06T18:53:09.234Z,3.86
2022-12-06T18:55:26.119Z,3.84
2022-12-06T18:57:43.014Z,3.84
2022-12-06T19:00:00.742Z,3.84
2022-12-06T19:02:18.344Z,3.86
2022-12-06T19:04:35.349Z,3.85
2022-12-06T19:06:52.385Z,3.84
2022-12-06T19:09:09.554Z,3.85
2022-12-06T19:11:26.473Z,3.83
2022-12-06T19:13:43.571Z,3.84
2022-12-06T19:16:00.693Z,3.85
2022-12-06T19:18:17.817Z,3.82
2022-12-06T19:20:35.069Z,3.82
2022-12-06T19:22:52.081Z,3.81
2022-12-06T19:25:09.078Z,3.80
2022-12-06T19:27:26.056Z,3.76
2022-12-06T19:29:43.021Z,3.74
2022-12-06T19:32:00.054Z,3.74
2022-12-06T19:34:17.014Z,3.74
2022-12-06T19:36:35.337Z,3.73
2022-12-06T19:38:52.255Z,3.73
2022-12-06T19:41:09.359Z,3.75
2022-12-06T19:43:26.639Z,3.74
2022-12-06T19:45:43.759Z,3.69
2022-12-06T19:48:01.076Z,3.70
2022-12-06T19:50:18.093Z,3.68
2022-12-06T19:52:35.403Z,3.68
2022-12-06T19:54:52.308Z,3.64
2022-12-06T19:57:09.386Z,3.60
2022-12-06T19:59:26.307Z,3.59
2022-12-06T20:01:43.425Z,3.58
2022-12-06T20:04:00.853Z,3.60
2022-12-06T20:06:18.428Z,3.56
2022-12-06T20:08:36.461Z,3.51
2022-12-06T20:10:53.459Z,3.46
2022-12-06T20:13:11.442Z,3.40
2022-12-06T20:15:28.367Z,3.35
2022-12-06T20:17:45.415Z,3.34
2022-12-06T20:20:02.682Z,3.30
2022-12-06T20:22:20.151Z,3.32
2022-12-06T20:24:37.187Z,3.32
2022-12-06T20:26:54.227Z,3.31
2022-12-06T20:29:11.235Z,3.33
2022-12-06T20:31:28.279Z,3.34
2022-12-06T20:33:45.235Z,3.33
2022-12-06T20:36:02.173Z,3.34
2022-12-06T20:38:19.159Z,3.41
2022-12-06T20:40:36.060Z,3.37
2022-12-06T20:42:53.286Z,3.38
2022-12-06T20:45:10.209Z,3.37
2022-12-06T20:47:27.242Z,3.38
2022-12-06T20:49:44.491Z,3.37
2022-12-06T20:52:02.529Z,3.38
2022-12-06T20:54:19.466Z,3.39
2022-12-06T20:56:36.391Z,3.40
2022-12-06T20:58:53.369Z,3.39
2022-12-06T21:01:10.419Z,3.37
2022-12-06T21:03:28.504Z,3.36
2022-12-06T21:05:46.504Z,3.42
2022-12-06T21:08:05.014Z,3.42
2022-12-06T21:10:22.004Z,3.41
2022-12-06T21:12:40.264Z,3.38
2022-12-06T21:14:57.492Z,3.39
2022-12-06T21:17:14.595Z,3.38
2022-12-06T21:19:32.913Z,3.37
2022-12-06T21:21:50.188Z,3.38
2022-12-06T21:24:07.200Z,3.37
2022-12-06T21:26:24.120Z,3.39
2022-12-06T21:28:41.460Z,3.36
2022-12-06T21:30:58.751Z,3.36
2022-12-06T21:33:16.045Z,3.35
2022-12-06T21:35:33.404Z,3.32
2022-12-06T21:37:50.452Z,3.33
2022-12-06T21:40:07.509Z,3.33
2022-12-06T21:42:24.550Z,3.31
2022-12-06T21:44:41.701Z,3.32
2022-12-06T21:46:59.014Z,3.30
2022-12-06T21:49:16.025Z,3.30
2022-12-06T21:51:33.005Z,3.29
2022-12-06T21:53:50.408Z,3.27
2022-12-06T21:56:07.363Z,3.28
2022-12-06T21:58:24.346Z,3.31
2022-12-06T22:00:41.261Z,3.34
2022-12-06T22:02:58.333Z,3.33
2022-12-06T22:05:15.410Z,3.31
2022-12-06T22:07:32.324Z,3.30
2022-12-06T22:09:49.613Z,3.29
2022-12-06T22:12:06.621Z,3.30
2022-12-06T22:14:23.896Z,3.33
2022-12-06T22:16:41.208Z,3.33
2022-12-06T22:18:58.107Z,3.34
2022-12-06T22:21:15.040Z,3.32
2022-12-06T22:23:32.074Z,3.30
2022-12-06T22:25:49.153Z,3.33
2022-12-06T22:28:06.255Z,3.33
2022-12-06T22:30:23.578Z,3.36
2022-12-06T22:32:41.656Z,3.35
2022-12-06T22:34:58.915Z,3.33
2022-12-06T22:37:16.285Z,3.32
2022-12-06T22:39:33.588Z,3.30
2022-12-06T22:41:50.916Z,3.30
2022-12-06T22:44:07.928Z,3.32
2022-12-06T22:46:24.985Z,3.33
2022-12-06T22:48:42.166Z,3.31
2022-12-06T22:50:59.248Z,3.31
2022-12-06T22:53:16.599Z,3.33
2022-12-06T22:55:33.816Z,3.32
2022-12-06T22:57:51.094Z,3.33
2022-12-06T23:00:08.192Z,3.32
2022-12-06T23:02:25.341Z,3.30
2022-12-06T23:04:42.612Z,3.29
2022-12-06T23:06:59.542Z,3.31
2022-12-06T23:09:16.732Z,3.33
2022-12-06T23:11:33.920Z,3.32
2022-12-06T23:13:51.859Z,3.30
2022-12-06T23:16:09.328Z,3.27
2022-12-06T23:18:26.358Z,3.27
2022-12-06T23:20:43.420Z,3.27
2022-12-06T23:23:00.661Z,3.26
2022-12-06T23:25:18.000Z,3.28
2022-12-06T23:27:35.002Z,3.27
2022-12-06T23:29:51.989Z,3.26
2022-12-06T23:32:09.304Z,3.25
2022-12-06T23:34:26.423Z,3.25
2022-12-06T23:36:43.359Z,3.25
2022-12-06T23:39:00.557Z,3.35
2022-12-06T23:41:17.863Z,3.32
2022-12-06T23:43:34.846Z,3.26
2022-12-06T23:45:57.517Z,3.24
2022-12-06T23:48:15.827Z,3.20
2022-12-06T23:50:33.133Z,3.19
2022-12-06T23:52:50.197Z,3.19
2022-12-06T23:55:07.364Z,3.17
2022-12-06T23:57:25.284Z,3.18
2022-12-06T23:59:42.402Z,3.16
